Portada
METAR-TAF:

METAR-TAF

Aeroports :

Marianna Municipal Airport

Marianna, Florida, Estats Units d'Amèrica

latitud: 30-50-12N, longitud: 085-11-01W, altitud: 34 m

Observació

L'informe es va fer fa 59 minuts, a les 14:53 UTC
Vent 10 kt del Est/Nord-Est
Temperatura 28°C
Humitat 66%
Pressió 1020 hPa
Visibilitat: 16.1 km
Cel clar

METAR: KMAI 011453Z AUTO 07010KT 10SM CLR 28/21 A3012 RMK AO2 SLP196 T02780211 51018

Hora: 10:52 (15:52 UTC)


TAF: manca

Observacions i pronòstics meteorològics de més de 4000 aeroports (METAR i TAF).

Les estacions disponibles són els punts grocs i vermells al mapa.

Posi el ratolí al punt desitjat per veure el nom de l'estació.

Feu clic per veure les observacions i els pronòstics meteorològics.

Per canviar el mapa: feu clic els botons verds amb una creu de color negre per apropar; al botó verd amb un guió per allunyar la imatge; o en les fletxes verdes per a mapes adjacents.


METAR-TAF: